createdAt,value
2022-07-30T00:00:27.361Z,101297.94
2022-07-30T00:02:55.269Z,101298.69
2022-07-30T00:05:23.258Z,101301.75
2022-07-30T00:07:51.281Z,101300.28
2022-07-30T00:10:22.991Z,101298.97
2022-07-30T00:12:51.156Z,101296.88
2022-07-30T00:15:19.176Z,101308.56
2022-07-30T00:17:49.157Z,101300.75
2022-07-30T00:20:18.580Z,101309.59
2022-07-30T00:22:46.923Z,101303.38
2022-07-30T00:25:15.220Z,101304.22
2022-07-30T00:27:45.386Z,101313.06
2022-07-30T00:30:14.540Z,101304.75
2022-07-30T00:32:44.443Z,101305.00
2022-07-30T00:35:12.484Z,101298.34
2022-07-30T00:37:40.786Z,101292.28
2022-07-30T00:40:10.354Z,101297.16
2022-07-30T00:42:42.616Z,101300.91
2022-07-30T00:45:13.580Z,101287.47
2022-07-30T00:47:42.304Z,101296.75
2022-07-30T00:50:12.306Z,101297.84
2022-07-30T00:52:42.234Z,101286.13
2022-07-30T00:55:12.700Z,101286.03
2022-07-30T00:57:41.499Z,101286.31
2022-07-30T01:00:14.622Z,101288.47
2022-07-30T01:02:42.978Z,101296.91
2022-07-30T01:05:11.593Z,101297.63
2022-07-30T01:07:39.637Z,101288.91
2022-07-30T01:10:11.180Z,101290.97
2022-07-30T01:12:39.519Z,101291.81
2022-07-30T01:15:09.423Z,101291.81
2022-07-30T01:17:39.498Z,101292.44
2022-07-30T01:20:11.139Z,101291.06
2022-07-30T01:22:52.371Z,101292.88
2022-07-30T01:25:28.987Z,101293.78
2022-07-30T01:28:03.545Z,101285.34
2022-07-30T01:30:35.284Z,101292.19
2022-07-30T01:33:05.660Z,101291.53
2022-07-30T01:35:35.732Z,101281.16
2022-07-30T01:38:06.388Z,101292.53
2022-07-30T01:40:36.117Z,101283.69
2022-07-30T01:43:08.178Z,101283.72
2022-07-30T01:45:44.195Z,101286.53
2022-07-30T01:48:15.843Z,101286.97
2022-07-30T01:50:46.365Z,101281.13
2022-07-30T01:53:17.833Z,101268.91
2022-07-30T01:55:46.482Z,101282.00
2022-07-30T01:58:19.463Z,101274.94
2022-07-30T02:00:50.949Z,101273.84
2022-07-30T02:03:19.030Z,101278.06
2022-07-30T02:05:53.551Z,101284.19
2022-07-30T02:08:28.962Z,101281.34
2022-07-30T02:11:02.634Z,101287.34
2022-07-30T02:13:34.241Z,101284.25
2022-07-30T02:16:13.008Z,101286.53
2022-07-30T02:18:49.066Z,101287.63
2022-07-30T02:21:21.549Z,101283.03
2022-07-30T02:23:53.386Z,101278.63
2022-07-30T02:26:26.248Z,101279.75
2022-07-30T02:29:00.518Z,101281.81
2022-07-30T02:31:30.357Z,101277.72
2022-07-30T02:34:02.437Z,101281.00
2022-07-30T02:36:32.351Z,101264.69
2022-07-30T02:39:02.731Z,101265.47
2022-07-30T02:41:32.858Z,101271.94
2022-07-30T02:44:03.911Z,101264.28
2022-07-30T02:46:33.524Z,101270.28
2022-07-30T02:49:22.553Z,101271.75
2022-07-30T02:51:52.024Z,101274.66
2022-07-30T02:54:21.144Z,101275.78
2022-07-30T02:56:51.693Z,101270.97
2022-07-30T02:59:24.695Z,101271.59
2022-07-30T03:01:53.632Z,101267.22
2022-07-30T03:04:22.984Z,101262.03
2022-07-30T03:06:52.275Z,101267.50
2022-07-30T03:09:21.391Z,101261.94
2022-07-30T03:11:52.494Z,101271.38
2022-07-30T03:14:21.992Z,101266.97
2022-07-30T03:16:57.315Z,101274.47
2022-07-30T03:19:30.242Z,101274.59
2022-07-30T03:21:59.605Z,101276.72
2022-07-30T03:24:29.877Z,101288.94
2022-07-30T03:27:01.003Z,101277.59
2022-07-30T03:29:31.666Z,101285.31
2022-07-30T03:32:01.213Z,101280.56
2022-07-30T03:34:29.637Z,101279.91
2022-07-30T03:36:58.898Z,101293.31
2022-07-30T03:39:27.977Z,101290.97
2022-07-30T03:41:56.846Z,101283.44
2022-07-30T03:44:26.356Z,101288.56
2022-07-30T03:46:57.911Z,101296.66
2022-07-30T03:49:27.788Z,101295.47
2022-07-30T03:51:57.144Z,101297.28
2022-07-30T03:54:26.586Z,101305.13
2022-07-30T03:57:15.238Z,101305.22
2022-07-30T03:59:51.687Z,101306.91
2022-07-30T04:02:22.827Z,101310.78
2022-07-30T04:05:14.289Z,101309.72
2022-07-30T04:07:45.321Z,101309.00
2022-07-30T04:10:16.722Z,101305.72
2022-07-30T04:13:00.224Z,101315.81
2022-07-30T04:16:40.108Z,101308.53
2022-07-30T04:18:21.240Z,101322.66
2022-07-30T04:20:52.118Z,101319.91
2022-07-30T04:23:20.445Z,101326.53
2022-07-30T04:25:49.564Z,101316.41
2022-07-30T04:28:18.020Z,101327.13
2022-07-30T04:30:47.340Z,101330.00
2022-07-30T04:33:15.557Z,101338.38
2022-07-30T04:35:58.834Z,101338.72
2022-07-30T04:38:32.754Z,101331.88
2022-07-30T04:41:01.293Z,101330.22
2022-07-30T04:43:34.118Z,101334.72
2022-07-30T04:46:02.525Z,101332.09
2022-07-30T04:48:30.501Z,101331.72
2022-07-30T04:51:17.838Z,101335.63
2022-07-30T04:53:48.341Z,101333.88
2022-07-30T04:56:19.544Z,101338.81
2022-07-30T04:58:49.842Z,101333.66
2022-07-30T05:01:24.224Z,101324.63
2022-07-30T05:04:07.828Z,101329.47
2022-07-30T05:06:39.643Z,101331.78
2022-07-30T05:09:08.057Z,101331.94
2022-07-30T05:11:36.141Z,101334.00
2022-07-30T05:14:04.128Z,101337.34
2022-07-30T05:16:34.092Z,101333.88
2022-07-30T05:19:07.583Z,101332.72
2022-07-30T05:21:38.232Z,101328.50
2022-07-30T05:24:07.053Z,101329.13
2022-07-30T05:26:41.909Z,101333.72
2022-07-30T05:29:17.251Z,101328.38
2022-07-30T05:31:52.921Z,101325.38
2022-07-30T05:34:22.172Z,101321.81
2022-07-30T05:36:51.567Z,101330.50
2022-07-30T05:39:19.785Z,101319.84
2022-07-30T05:41:53.341Z,101323.97
2022-07-30T05:44:26.255Z,101316.38
2022-07-30T05:46:54.632Z,101315.19
2022-07-30T05:49:22.721Z,101322.47
2022-07-30T05:51:55.626Z,101323.25
2022-07-30T05:54:24.695Z,101333.16
2022-07-30T05:57:31.339Z,101330.81
2022-07-30T05:59:59.310Z,101333.84
2022-07-30T06:02:44.616Z,101332.38
2022-07-30T06:05:32.918Z,101340.38
2022-07-30T06:08:04.804Z,101338.81
2022-07-30T06:10:33.206Z,101342.00
2022-07-30T06:13:01.303Z,101343.44
2022-07-30T06:15:29.323Z,101341.47
2022-07-30T06:18:01.847Z,101344.50
2022-07-30T06:20:47.305Z,101341.81
2022-07-30T06:23:23.076Z,101344.50
2022-07-30T06:26:26.400Z,101342.59
2022-07-30T06:28:54.370Z,101350.00
2022-07-30T06:31:30.495Z,101345.59
2022-07-30T06:33:58.597Z,101350.94
2022-07-30T06:36:30.501Z,101355.56
2022-07-30T06:39:14.617Z,101350.72
2022-07-30T06:42:28.995Z,101358.91
2022-07-30T06:45:22.455Z,101353.53
2022-07-30T06:48:09.562Z,101357.56
2022-07-30T06:50:37.873Z,101358.78
2022-07-30T06:53:07.097Z,101366.44
2022-07-30T06:56:00.468Z,101362.06
2022-07-30T06:58:36.184Z,101366.56
2022-07-30T07:01:26.798Z,101364.91
2022-07-30T07:03:56.381Z,101363.88
2022-07-30T07:06:24.635Z,101371.50
2022-07-30T07:08:52.577Z,101369.00
2022-07-30T07:11:28.957Z,101374.69
2022-07-30T07:14:04.020Z,101369.69
2022-07-30T07:16:35.760Z,101366.44
2022-07-30T07:20:01.336Z,101371.06
2022-07-30T07:22:15.854Z,101371.94
2022-07-30T07:24:45.401Z,101368.34
2022-07-30T07:27:19.796Z,101366.81
2022-07-30T07:30:05.525Z,101362.59
2022-07-30T07:32:37.822Z,101364.63
2022-07-30T07:35:07.141Z,101365.31
2022-07-30T07:37:38.473Z,101370.31
2022-07-30T07:40:09.034Z,101371.50
2022-07-30T07:42:43.004Z,101378.66
2022-07-30T07:45:12.118Z,101380.13
2022-07-30T07:47:53.195Z,101371.47
2022-07-30T07:51:00.596Z,101381.25
2022-07-30T07:53:31.894Z,101369.94
2022-07-30T07:56:00.193Z,101373.13
2022-07-30T07:58:31.059Z,101377.13
2022-07-30T08:01:02.313Z,101378.72
2022-07-30T08:03:59.260Z,101375.94
2022-07-30T08:06:53.094Z,101374.22
2022-07-30T08:09:50.015Z,101362.06
2022-07-30T08:12:44.003Z,101364.50
2022-07-30T08:15:32.493Z,101364.13
2022-07-30T08:18:11.057Z,101364.25
2022-07-30T08:20:57.510Z,101368.34
2022-07-30T08:23:30.299Z,101363.06
2022-07-30T08:25:58.951Z,101366.53
2022-07-30T08:28:27.593Z,101361.53
2022-07-30T08:31:06.407Z,101354.09
2022-07-30T08:33:34.432Z,101362.31
2022-07-30T08:36:04.309Z,101363.34
2022-07-30T08:38:37.359Z,101364.81
2022-07-30T08:41:05.589Z,101365.06
2022-07-30T08:43:34.428Z,101366.44
2022-07-30T08:46:03.619Z,101371.78
2022-07-30T08:48:51.462Z,101362.31
2022-07-30T08:51:22.152Z,101367.28
2022-07-30T08:53:57.750Z,101367.72
2022-07-30T08:56:26.135Z,101367.88
2022-07-30T08:58:54.472Z,101368.06
2022-07-30T09:01:23.872Z,101368.41
2022-07-30T09:03:53.346Z,101365.50
2022-07-30T09:06:21.371Z,101362.78
2022-07-30T09:08:49.630Z,101361.78
2022-07-30T09:11:18.897Z,101366.75
2022-07-30T09:13:47.059Z,101362.53
2022-07-30T09:16:23.532Z,101360.72
2022-07-30T09:18:54.878Z,101361.78
2022-07-30T09:21:26.010Z,101370.53
2022-07-30T09:24:05.387Z,101371.56
2022-07-30T09:26:58.469Z,101365.97
2022-07-30T09:29:44.991Z,101362.13
2022-07-30T09:32:49.653Z,101354.81
2022-07-30T09:35:42.756Z,101356.53
2022-07-30T09:38:11.434Z,101353.09
2022-07-30T09:41:29.082Z,101356.13
2022-07-30T09:44:09.532Z,101351.16
2022-07-30T09:46:47.404Z,101352.84
2022-07-30T09:49:22.432Z,101354.25
2022-07-30T09:51:55.874Z,101347.88
2022-07-30T09:54:26.285Z,101355.38
2022-07-30T09:57:23.142Z,101356.34
2022-07-30T09:59:57.905Z,101348.94
2022-07-30T10:02:32.910Z,101350.63
2022-07-30T10:05:20.538Z,101347.44
2022-07-30T10:07:52.134Z,101344.47
2022-07-30T10:10:25.216Z,101342.94
2022-07-30T10:12:58.155Z,101347.53
2022-07-30T10:15:30.721Z,101345.41
2022-07-30T10:18:02.494Z,101345.25
2022-07-30T10:20:53.240Z,101353.59
2022-07-30T10:23:53.843Z,101353.81
2022-07-30T10:26:41.026Z,101348.63
2022-07-30T10:29:39.251Z,101351.16
2022-07-30T10:32:11.694Z,101350.69
2022-07-30T10:34:42.412Z,101344.91
2022-07-30T10:37:13.172Z,101341.03
2022-07-30T10:39:53.559Z,101342.59
2022-07-30T10:42:42.908Z,101343.25
2022-07-30T10:45:19.536Z,101347.44
2022-07-30T10:47:49.852Z,101337.88
2022-07-30T10:50:22.279Z,101340.16
2022-07-30T10:52:52.225Z,101339.53
2022-07-30T10:55:37.003Z,101336.81
2022-07-30T10:58:09.725Z,101332.91
2022-07-30T11:01:00.891Z,101332.91
2022-07-30T11:03:40.397Z,101325.78
2022-07-30T11:06:29.412Z,101317.84
2022-07-30T11:08:58.206Z,101318.13
2022-07-30T11:12:01.778Z,101324.50
2022-07-30T11:14:58.360Z,101317.44
2022-07-30T11:18:03.240Z,101316.28
2022-07-30T11:20:33.158Z,101310.50
2022-07-30T11:23:14.046Z,101318.00
2022-07-30T11:25:51.879Z,101307.41
2022-07-30T11:28:41.662Z,101314.50
2022-07-30T11:31:55.051Z,101313.66
2022-07-30T11:34:30.700Z,101318.81
2022-07-30T11:37:22.362Z,101318.34
2022-07-30T11:40:11.373Z,101311.09
2022-07-30T11:42:41.956Z,101319.31
2022-07-30T11:45:30.877Z,101320.16
2022-07-30T11:48:01.266Z,101305.09
2022-07-30T11:50:32.217Z,101312.91
2022-07-30T11:53:02.313Z,101308.00
2022-07-30T11:55:33.384Z,101318.34
2022-07-30T11:58:02.877Z,101312.13
2022-07-30T12:00:39.752Z,101311.19
2022-07-30T12:03:15.432Z,101317.34
2022-07-30T12:05:44.289Z,101306.34
2022-07-30T12:08:35.581Z,101308.41
2022-07-30T12:11:02.833Z,101312.47
2022-07-30T12:13:45.265Z,101307.94
2022-07-30T12:16:17.926Z,101314.38
2022-07-30T12:18:46.874Z,101311.59
2022-07-30T12:21:16.300Z,101312.56
2022-07-30T12:23:54.436Z,101312.31
2022-07-30T12:26:23.086Z,101298.63
2022-07-30T12:28:52.666Z,101302.34
2022-07-30T12:31:22.257Z,101307.75
2022-07-30T12:33:50.223Z,101323.53
2022-07-30T12:36:30.777Z,101316.50
2022-07-30T12:38:59.187Z,101315.97
2022-07-30T12:41:43.637Z,101319.38
2022-07-30T12:44:11.799Z,101310.09
2022-07-30T12:46:42.198Z,101309.38
2022-07-30T12:49:22.664Z,101315.66
2022-07-30T12:51:59.942Z,101309.78
2022-07-30T12:54:29.441Z,101303.81
2022-07-30T12:56:59.911Z,101303.34
2022-07-30T12:59:28.793Z,101298.28
2022-07-30T13:02:00.477Z,101299.16
2022-07-30T13:04:29.009Z,101297.81
2022-07-30T13:07:08.434Z,101304.78
2022-07-30T13:09:37.094Z,101300.03
2022-07-30T13:12:06.238Z,101305.22
2022-07-30T13:14:34.297Z,101314.72
2022-07-30T13:17:04.296Z,101310.13
2022-07-30T13:19:32.614Z,101311.00
2022-07-30T13:22:00.587Z,101308.03
2022-07-30T13:24:28.508Z,101291.81
2022-07-30T13:26:56.505Z,101298.28
2022-07-30T13:29:24.479Z,101296.50
2022-07-30T13:31:52.718Z,101303.13
2022-07-30T13:34:21.999Z,101298.41
2022-07-30T13:36:49.956Z,101296.72
2022-07-30T13:39:17.897Z,101299.19
2022-07-30T13:41:45.892Z,101294.78
2022-07-30T13:44:13.793Z,101295.69
2022-07-30T13:46:41.818Z,101295.03
2022-07-30T13:49:10.872Z,101288.81
2022-07-30T13:51:40.464Z,101286.72
2022-07-30T13:54:08.466Z,101286.16
2022-07-30T13:56:40.888Z,101293.16
2022-07-30T13:59:09.292Z,101295.28
2022-07-30T14:01:38.145Z,101298.59
2022-07-30T14:04:06.867Z,101291.41
2022-07-30T14:06:34.845Z,101288.88
2022-07-30T14:09:04.683Z,101289.09
2022-07-30T14:11:33.084Z,101287.44
2022-07-30T14:14:00.988Z,101289.47
2022-07-30T14:16:44.856Z,101288.28
2022-07-30T14:19:23.582Z,101287.03
2022-07-30T14:21:52.951Z,101291.03
2022-07-30T14:24:22.940Z,101290.63
2022-07-30T14:26:58.776Z,101290.84
2022-07-30T14:29:27.353Z,101282.56
2022-07-30T14:31:55.921Z,101289.19
2022-07-30T14:34:23.956Z,101287.94
2022-07-30T14:36:51.927Z,101281.94
2022-07-30T14:39:20.633Z,101277.00
2022-07-30T14:41:53.572Z,101277.81
2022-07-30T14:44:24.348Z,101275.72
2022-07-30T14:46:53.025Z,101276.25
2022-07-30T14:49:21.743Z,101284.03
2022-07-30T14:51:51.096Z,101287.59
2022-07-30T14:54:19.493Z,101285.38
2022-07-30T14:56:48.908Z,101291.09
2022-07-30T14:59:17.007Z,101288.47
2022-07-30T15:01:45.147Z,101279.84
2022-07-30T15:04:13.146Z,101277.88
2022-07-30T15:06:41.835Z,101292.16
2022-07-30T15:09:10.674Z,101286.13
2022-07-30T15:12:07.635Z,101289.78
2022-07-30T15:14:29.344Z,101286.75
2022-07-30T15:17:03.697Z,101294.91
2022-07-30T15:19:32.750Z,101295.09
2022-07-30T15:22:02.392Z,101288.16
2022-07-30T15:24:30.667Z,101289.94
2022-07-30T15:26:58.630Z,101288.09
2022-07-30T15:29:29.304Z,101287.16
2022-07-30T15:32:00.760Z,101282.38
2022-07-30T15:34:33.965Z,101282.72
2022-07-30T15:37:02.599Z,101278.69
2022-07-30T15:39:32.895Z,101279.88
2022-07-30T15:42:01.979Z,101277.47
2022-07-30T15:44:30.286Z,101279.72
2022-07-30T15:46:59.886Z,101277.81
2022-07-30T15:49:28.313Z,101277.09
2022-07-30T15:51:57.308Z,101273.56
2022-07-30T15:54:25.662Z,101278.81
2022-07-30T15:57:00.739Z,101279.22
2022-07-30T15:59:30.127Z,101279.25
2022-07-30T16:01:59.619Z,101277.75
2022-07-30T16:04:31.283Z,101277.53
2022-07-30T16:07:00.718Z,101276.13
2022-07-30T16:09:29.205Z,101274.22
2022-07-30T16:11:57.287Z,101266.25
2022-07-30T16:14:26.728Z,101276.34
2022-07-30T16:16:54.690Z,101272.78
2022-07-30T16:19:24.135Z,101271.31
2022-07-30T16:21:52.219Z,101273.97
2022-07-30T16:24:20.324Z,101277.59
2022-07-30T16:26:48.281Z,101270.34
2022-07-30T16:29:16.240Z,101276.47
2022-07-30T16:31:44.271Z,101269.72
2022-07-30T16:34:12.302Z,101280.09
2022-07-30T16:36:41.668Z,101274.50
2022-07-30T16:39:09.638Z,101275.66
2022-07-30T16:41:37.761Z,101283.28
2022-07-30T16:44:06.096Z,101289.28
2022-07-30T16:46:34.400Z,101293.84
2022-07-30T16:49:02.391Z,101284.00
2022-07-30T16:51:30.651Z,101287.38
2022-07-30T16:54:00.094Z,101280.84
2022-07-30T16:56:28.087Z,101296.91
2022-07-30T16:58:56.138Z,101284.72
2022-07-30T17:01:24.198Z,101288.09
2022-07-30T17:03:52.371Z,101291.31
2022-07-30T17:06:20.295Z,101293.94
2022-07-30T17:08:48.679Z,101297.56
2022-07-30T17:11:45.973Z,101298.03
2022-07-30T17:14:06.139Z,101300.63
2022-07-30T17:16:34.085Z,101303.69
2022-07-30T17:19:09.330Z,101299.56
2022-07-30T17:21:39.084Z,101300.53
2022-07-30T17:24:11.338Z,101306.47
2022-07-30T17:26:43.309Z,101304.97
2022-07-30T17:29:14.382Z,101308.97
2022-07-30T17:31:44.216Z,101318.69
2022-07-30T17:34:14.323Z,101311.06
2022-07-30T17:36:51.785Z,101316.16
2022-07-30T17:40:28.228Z,101318.91
2022-07-30T17:42:11.180Z,101316.56
2022-07-30T17:44:40.265Z,101316.88
2022-07-30T17:47:14.383Z,101314.56
2022-07-30T17:49:42.730Z,101318.31
2022-07-30T17:52:10.662Z,101312.63
2022-07-30T17:54:38.749Z,101316.19
2022-07-30T17:57:07.133Z,101313.69
2022-07-30T17:59:36.528Z,101319.78
2022-07-30T18:02:05.394Z,101320.88
2022-07-30T18:04:34.771Z,101311.97
2022-07-30T18:07:02.763Z,101319.38
2022-07-30T18:09:39.165Z,101319.00
2022-07-30T18:12:09.067Z,101318.31
2022-07-30T18:14:38.669Z,101323.38
2022-07-30T18:17:10.031Z,101321.66
2022-07-30T18:19:40.835Z,101320.41
2022-07-30T18:22:09.064Z,101320.41
2022-07-30T18:24:40.478Z,101322.34
2022-07-30T18:27:12.661Z,101324.00
2022-07-30T18:29:42.730Z,101334.31
2022-07-30T18:32:10.781Z,101329.47
2022-07-30T18:34:38.972Z,101321.25
2022-07-30T18:37:06.973Z,101327.34
2022-07-30T18:39:34.888Z,101325.44
2022-07-30T18:42:03.585Z,101323.97
2022-07-30T18:44:32.136Z,101332.47
2022-07-30T18:47:01.581Z,101337.75
2022-07-30T18:49:37.987Z,101341.59
2022-07-30T18:52:08.147Z,101339.19
2022-07-30T18:54:36.804Z,101345.53
2022-07-30T18:57:05.266Z,101353.56
2022-07-30T18:59:33.427Z,101350.09
2022-07-30T19:02:04.640Z,101361.47
2022-07-30T19:04:33.068Z,101361.00
2022-07-30T19:07:01.057Z,101364.19
2022-07-30T19:09:29.073Z,101359.94
2022-07-30T19:11:57.019Z,101372.13
2022-07-30T19:14:25.061Z,101371.09
2022-07-30T19:16:53.465Z,101373.25
2022-07-30T19:19:28.690Z,101371.75
2022-07-30T19:21:56.924Z,101376.19
2022-07-30T19:24:27.837Z,101383.28
2022-07-30T19:26:56.256Z,101385.53
2022-07-30T19:29:24.339Z,101380.88
2022-07-30T19:31:52.261Z,101397.97
2022-07-30T19:34:20.321Z,101396.38
2022-07-30T19:36:49.955Z,101401.88
2022-07-30T19:39:21.501Z,101401.84
2022-07-30T19:42:02.035Z,101401.00
2022-07-30T19:44:30.531Z,101410.44
2022-07-30T19:46:59.996Z,101413.72
2022-07-30T19:49:29.689Z,101417.28
2022-07-30T19:52:10.647Z,101410.81
2022-07-30T19:54:47.331Z,101416.53
2022-07-30T19:57:15.362Z,101415.63
2022-07-30T19:59:59.633Z,101412.19
2022-07-30T20:02:28.487Z,101410.28
2022-07-30T20:04:56.870Z,101419.47
2022-07-30T20:07:27.528Z,101423.56
2022-07-30T20:09:55.823Z,101417.88
2022-07-30T20:12:42.695Z,101420.00
2022-07-30T20:15:17.356Z,101414.88
2022-07-30T20:17:46.504Z,101414.22
2022-07-30T20:20:14.766Z,101414.75
2022-07-30T20:22:44.309Z,101414.47
2022-07-30T20:25:13.561Z,101411.16
2022-07-30T20:27:41.922Z,101415.41
2022-07-30T20:30:12.698Z,101424.19
2022-07-30T20:32:44.789Z,101415.09
2022-07-30T20:35:14.924Z,101414.66
2022-07-30T20:37:55.555Z,101418.44
2022-07-30T20:40:26.602Z,101417.47
2022-07-30T20:42:55.309Z,101424.97
2022-07-30T20:45:24.750Z,101422.25
2022-07-30T20:47:56.404Z,101423.50
2022-07-30T20:50:30.856Z,101416.72
2022-07-30T20:53:00.949Z,101423.13
2022-07-30T20:55:29.254Z,101410.22
2022-07-30T20:58:06.957Z,101410.22
2022-07-30T21:00:41.818Z,101416.56
2022-07-30T21:03:13.634Z,101416.13
2022-07-30T21:05:43.101Z,101416.78
2022-07-30T21:08:12.839Z,101409.25
2022-07-30T21:10:44.662Z,101413.25
2022-07-30T21:13:12.790Z,101407.16
2022-07-30T21:15:45.369Z,101408.38
2022-07-30T21:18:14.233Z,101412.72
2022-07-30T21:20:42.185Z,101406.34
2022-07-30T21:23:22.176Z,101397.22
2022-07-30T21:26:01.480Z,101399.66
2022-07-30T21:28:35.236Z,101397.19
2022-07-30T21:31:06.824Z,101402.56
2022-07-30T21:33:36.360Z,101400.31
2022-07-30T21:36:05.357Z,101399.84
2022-07-30T21:38:41.807Z,101396.63
2022-07-30T21:41:14.218Z,101406.25
2022-07-30T21:43:43.569Z,101407.66
2022-07-30T21:46:12.128Z,101402.75
2022-07-30T21:48:40.943Z,101409.06
2022-07-30T21:51:09.544Z,101408.59
2022-07-30T21:53:45.095Z,101403.03
2022-07-30T21:56:16.579Z,101410.00
2022-07-30T21:58:45.297Z,101407.22
2022-07-30T22:01:16.839Z,101415.03
2022-07-30T22:04:07.762Z,101412.56
2022-07-30T22:06:40.060Z,101410.00
2022-07-30T22:09:18.995Z,101407.59
2022-07-30T22:12:01.279Z,101404.88
2022-07-30T22:14:30.174Z,101406.97
2022-07-30T22:16:59.663Z,101398.13
2022-07-30T22:19:27.801Z,101402.41
2022-07-30T22:21:55.950Z,101403.63
2022-07-30T22:24:28.673Z,101404.41
2022-07-30T22:27:00.079Z,101400.06
2022-07-30T22:29:34.098Z,101400.78
2022-07-30T22:32:04.043Z,101407.25
2022-07-30T22:34:32.729Z,101402.38
2022-07-30T22:37:00.818Z,101399.53
2022-07-30T22:39:32.133Z,101407.28
2022-07-30T22:42:17.024Z,101404.75
2022-07-30T22:44:47.518Z,101406.16
2022-07-30T22:47:18.974Z,101399.19
2022-07-30T22:52:52.477Z,101404.94
2022-07-30T22:55:28.536Z,101402.81
2022-07-30T22:58:00.276Z,101399.81
2022-07-30T23:00:29.832Z,101402.56
2022-07-30T23:02:58.446Z,101396.91
2022-07-30T23:05:26.811Z,101394.91
2022-07-30T23:07:55.339Z,101391.28
2022-07-30T23:10:25.604Z,101396.00
2022-07-30T23:12:30.541Z,101403.06
2022-07-30T23:12:56.801Z,101394.47
2022-07-30T23:15:25.154Z,101393.47
2022-07-30T23:17:54.522Z,101390.00
2022-07-30T23:20:24.718Z,101396.69
2022-07-30T23:22:52.997Z,101391.41
2022-07-30T23:25:21.483Z,101390.72
2022-07-30T23:27:52.569Z,101387.50
2022-07-30T23:30:20.737Z,101386.97
2022-07-30T23:32:50.622Z,101385.44
2022-07-30T23:35:21.971Z,101384.06
2022-07-30T23:37:50.312Z,101386.66
2022-07-30T23:40:19.680Z,101385.44
2022-07-30T23:42:47.815Z,101387.88
2022-07-30T23:45:18.857Z,101378.03
2022-07-30T23:47:55.954Z,101383.88
2022-07-30T23:50:32.650Z,101390.88
2022-07-30T23:53:01.076Z,101386.66
2022-07-30T23:55:33.023Z,101397.91
2022-07-30T23:58:01.299Z,101389.41
